createdAt,value
2022-08-24T00:00:35.074Z,94510.88
2022-08-24T00:03:02.424Z,94514.31
2022-08-24T00:05:29.664Z,94513.81
2022-08-24T00:07:56.410Z,94518.31
2022-08-24T00:10:23.284Z,94516.69
2022-08-24T00:12:50.981Z,94508.81
2022-08-24T00:15:18.149Z,94512.94
2022-08-24T00:17:45.451Z,94520.53
2022-08-24T00:20:12.795Z,94513.44
2022-08-24T00:22:41.090Z,94512.31
2022-08-24T00:25:10.641Z,94509.06
2022-08-24T00:27:38.666Z,94512.91
2022-08-24T00:30:08.698Z,94500.72
2022-08-24T00:32:37.821Z,94506.81
2022-08-24T00:35:08.851Z,94508.13
2022-08-24T00:37:37.037Z,94504.53
2022-08-24T00:40:06.814Z,94498.09
2022-08-24T00:42:33.833Z,94502.66
2022-08-24T00:45:00.625Z,94499.53
2022-08-24T00:47:34.769Z,94504.47
2022-08-24T00:50:06.846Z,94505.25
2022-08-24T00:52:39.645Z,94500.19
2022-08-24T00:55:15.769Z,94502.47
2022-08-24T00:57:46.857Z,94502.38
2022-08-24T01:00:18.371Z,94506.56
2022-08-24T01:02:48.956Z,94499.88
2022-08-24T01:05:19.167Z,94504.50
2022-08-24T01:07:50.591Z,94504.88
2022-08-24T01:10:21.068Z,94500.59
2022-08-24T01:12:59.880Z,94502.81
2022-08-24T01:15:29.134Z,94497.41
2022-08-24T01:18:14.846Z,94501.16
2022-08-24T01:20:45.986Z,94493.41
2022-08-24T01:23:54.673Z,94497.31
2022-08-24T01:26:26.460Z,94501.94
2022-08-24T01:28:58.060Z,94499.41
2022-08-24T01:31:26.639Z,94506.97
2022-08-24T01:33:55.088Z,94503.41
2022-08-24T01:36:38.074Z,94506.28
2022-08-24T01:39:25.341Z,94504.81
2022-08-24T01:41:53.581Z,94505.88
2022-08-24T01:44:23.318Z,94505.72
2022-08-24T01:46:56.468Z,94505.09
2022-08-24T01:49:27.056Z,94505.19
2022-08-24T01:51:54.097Z,94499.53
2022-08-24T01:54:21.143Z,94501.81
2022-08-24T01:56:48.044Z,94495.28
2022-08-24T01:59:15.628Z,94500.59
2022-08-24T02:01:48.906Z,94497.78
2022-08-24T02:04:17.558Z,94499.69
2022-08-24T02:06:45.490Z,94498.47
2022-08-24T02:09:13.465Z,94501.84
2022-08-24T02:11:41.843Z,94504.22
2022-08-24T02:14:11.849Z,94489.94
2022-08-24T02:16:41.284Z,94489.22
2022-08-24T02:19:08.687Z,94494.19
2022-08-24T02:21:35.861Z,94493.84
2022-08-24T02:24:03.017Z,94494.97
2022-08-24T02:26:31.351Z,94493.84
2022-08-24T02:29:03.466Z,94489.59
2022-08-24T02:31:31.518Z,94490.38
2022-08-24T02:33:58.467Z,94496.47
2022-08-24T02:36:26.692Z,94491.75
2022-08-24T02:38:57.503Z,94494.75
2022-08-24T02:41:26.019Z,94487.78
2022-08-24T02:43:55.227Z,94495.44
2022-08-24T02:46:25.966Z,94488.47
2022-08-24T02:49:10.112Z,94486.22
2022-08-24T02:51:38.777Z,94485.84
2022-08-24T02:54:17.550Z,94485.50
2022-08-24T02:56:46.092Z,94482.03
2022-08-24T02:59:14.093Z,94488.91
2022-08-24T03:01:41.360Z,94488.91
2022-08-24T03:04:08.421Z,94491.94
2022-08-24T03:06:35.158Z,94484.53
2022-08-24T03:09:02.212Z,94489.94
2022-08-24T03:11:29.183Z,94489.16
2022-08-24T03:13:59.467Z,94481.06
2022-08-24T03:16:30.508Z,94480.19
2022-08-24T03:18:58.325Z,94476.97
2022-08-24T03:21:27.442Z,94484.22
2022-08-24T03:23:55.844Z,94480.72
2022-08-24T03:26:23.221Z,94480.78
2022-08-24T03:28:51.182Z,94482.63
2022-08-24T03:31:19.470Z,94471.31
2022-08-24T03:33:48.055Z,94484.03
2022-08-24T03:36:15.461Z,94483.94
2022-08-24T03:38:43.433Z,94489.66
2022-08-24T03:41:10.912Z,94488.88
2022-08-24T03:43:51.743Z,94481.91
2022-08-24T03:46:26.294Z,94479.22
2022-08-24T03:48:58.295Z,94482.34
2022-08-24T03:51:27.965Z,94485.31
2022-08-24T03:53:57.249Z,94485.66
2022-08-24T03:56:27.463Z,94481.38
2022-08-24T03:58:55.192Z,94490.69
2022-08-24T04:01:23.564Z,94482.16
2022-08-24T04:03:53.478Z,94486.63
2022-08-24T04:06:23.415Z,94480.69
2022-08-24T04:08:51.348Z,94483.72
2022-08-24T04:11:23.788Z,94486.31
2022-08-24T04:13:53.907Z,94495.03
2022-08-24T04:16:21.628Z,94489.63
2022-08-24T04:18:54.515Z,94492.25
2022-08-24T04:21:27.630Z,94496.94
2022-08-24T04:23:55.407Z,94495.88
2022-08-24T04:26:43.356Z,94491.72
2022-08-24T04:29:15.844Z,94486.31
2022-08-24T04:31:47.908Z,94496.00
2022-08-24T04:34:16.787Z,94498.78
2022-08-24T04:36:45.233Z,94492.69
2022-08-24T04:39:13.321Z,94496.28
2022-08-24T04:42:03.199Z,94495.84
2022-08-24T04:44:34.929Z,94499.66
2022-08-24T04:47:01.956Z,94505.75
2022-08-24T04:49:30.658Z,94501.81
2022-08-24T04:51:58.419Z,94501.38
2022-08-24T04:54:26.286Z,94504.97
2022-08-24T04:57:09.421Z,94508.09
2022-08-24T04:59:36.701Z,94513.50
2022-08-24T05:02:03.581Z,94507.50
2022-08-24T05:04:31.209Z,94509.94
2022-08-24T05:06:58.669Z,94507.88
2022-08-24T05:09:27.127Z,94507.97
2022-08-24T05:11:55.673Z,94505.84
2022-08-24T05:14:29.069Z,94505.59
2022-08-24T05:16:56.668Z,94515.72
2022-08-24T05:19:24.233Z,94523.22
2022-08-24T05:21:51.201Z,94524.88
2022-08-24T05:24:19.670Z,94524.94
2022-08-24T05:26:46.942Z,94525.25
2022-08-24T05:29:14.698Z,94528.25
2022-08-24T05:31:46.873Z,94537.91
2022-08-24T05:34:14.927Z,94531.06
2022-08-24T05:36:42.656Z,94526.13
2022-08-24T05:39:17.719Z,94519.81
2022-08-24T05:41:51.302Z,94531.69
2022-08-24T05:44:30.837Z,94535.53
2022-08-24T05:47:01.516Z,94533.16
2022-08-24T05:49:29.557Z,94543.97
2022-08-24T05:51:56.296Z,94548.19
2022-08-24T05:54:23.586Z,94547.00
2022-08-24T05:57:04.718Z,94536.50
2022-08-24T05:59:38.091Z,94547.78
2022-08-24T06:02:13.340Z,94557.13
2022-08-24T06:04:41.124Z,94554.72
2022-08-24T06:07:11.722Z,94564.91
2022-08-24T06:09:43.037Z,94562.78
2022-08-24T06:12:10.406Z,94566.53
2022-08-24T06:14:37.295Z,94565.59
2022-08-24T06:17:07.975Z,94560.72
2022-08-24T06:19:36.258Z,94559.53
2022-08-24T06:22:03.780Z,94561.13
2022-08-24T06:24:49.864Z,94562.09
2022-08-24T06:27:25.564Z,94559.75
2022-08-24T06:29:56.029Z,94560.03
2022-08-24T06:32:48.705Z,94555.13
2022-08-24T06:35:28.466Z,94556.53
2022-08-24T06:37:57.527Z,94559.16
2022-08-24T06:40:26.004Z,94561.72
2022-08-24T06:42:54.066Z,94565.31
2022-08-24T06:45:44.912Z,94567.47
2022-08-24T06:48:13.762Z,94572.09
2022-08-24T06:50:41.023Z,94569.88
2022-08-24T06:53:08.701Z,94567.94
2022-08-24T06:55:35.726Z,94572.16
2022-08-24T06:58:03.248Z,94578.41
2022-08-24T07:00:31.155Z,94576.63
2022-08-24T07:02:58.205Z,94579.09
2022-08-24T07:05:25.613Z,94585.00
2022-08-24T07:08:08.150Z,94582.75
2022-08-24T07:10:36.453Z,94586.25
2022-08-24T07:13:04.107Z,94587.44
2022-08-24T07:15:31.258Z,94584.81
2022-08-24T07:18:16.403Z,94586.75
2022-08-24T07:20:48.008Z,94594.97
2022-08-24T07:23:34.575Z,94588.34
2022-08-24T07:26:20.969Z,94589.91
2022-08-24T07:28:59.545Z,94596.53
2022-08-24T07:31:31.013Z,94595.75
2022-08-24T07:34:10.565Z,94593.81
2022-08-24T07:36:44.317Z,94589.56
2022-08-24T07:39:12.638Z,94592.28
2022-08-24T07:42:02.510Z,94594.16
2022-08-24T07:44:31.200Z,94590.09
2022-08-24T07:47:07.085Z,94596.25
2022-08-24T07:49:45.632Z,94600.34
2022-08-24T07:52:12.507Z,94602.00
2022-08-24T07:54:39.278Z,94602.00
2022-08-24T07:57:06.756Z,94609.00
2022-08-24T07:59:35.946Z,94608.91
2022-08-24T08:02:03.186Z,94611.53
2022-08-24T08:04:32.073Z,94603.00
2022-08-24T08:07:01.739Z,94608.25
2022-08-24T08:09:31.559Z,94618.81
2022-08-24T08:11:59.368Z,94609.41
2022-08-24T08:14:26.359Z,94610.59
2022-08-24T08:16:53.954Z,94614.44
2022-08-24T08:19:20.744Z,94617.09
2022-08-24T08:22:08.591Z,94618.28
2022-08-24T08:24:47.988Z,94607.31
2022-08-24T08:27:17.604Z,94608.38
2022-08-24T08:29:44.674Z,94608.09
2022-08-24T08:32:16.989Z,94609.31
2022-08-24T08:34:44.927Z,94607.16
2022-08-24T08:37:12.590Z,94607.31
2022-08-24T08:39:40.710Z,94606.66
2022-08-24T08:42:31.635Z,94605.97
2022-08-24T08:45:04.439Z,94610.09
2022-08-24T08:48:10.770Z,94613.59
2022-08-24T08:50:49.179Z,94607.78
2022-08-24T08:53:34.716Z,94607.03
2022-08-24T08:56:28.628Z,94606.06
2022-08-24T08:59:01.796Z,94600.94
2022-08-24T09:02:09.304Z,94603.72
2022-08-24T09:04:56.500Z,94603.13
2022-08-24T09:07:33.025Z,94607.72
2022-08-24T09:10:29.072Z,94610.03
2022-08-24T09:13:40.940Z,94599.84
2022-08-24T09:16:36.123Z,94603.88
2022-08-24T09:19:08.869Z,94602.84
2022-08-24T09:22:01.021Z,94595.34
2022-08-24T09:24:43.748Z,94599.59
2022-08-24T09:27:50.369Z,94598.97
2022-08-24T09:30:23.890Z,94602.50
2022-08-24T09:33:10.407Z,94596.41
2022-08-24T09:36:02.343Z,94597.28
2022-08-24T09:38:52.395Z,94599.53
2022-08-24T09:41:50.273Z,94600.84
2022-08-24T09:44:44.907Z,94595.28
2022-08-24T09:47:22.859Z,94591.78
2022-08-24T09:50:11.041Z,94595.50
2022-08-24T09:53:15.045Z,94595.94
2022-08-24T09:56:04.097Z,94585.72
2022-08-24T09:58:57.961Z,94594.38
2022-08-24T10:01:37.837Z,94591.34
2022-08-24T10:04:23.347Z,94593.72
2022-08-24T10:07:14.875Z,94588.50
2022-08-24T10:10:12.820Z,94581.97
2022-08-24T10:13:06.055Z,94589.78
2022-08-24T10:16:08.763Z,94586.28
2022-08-24T10:19:07.197Z,94583.78
2022-08-24T10:22:03.027Z,94587.44
2022-08-24T10:24:40.444Z,94577.22
2022-08-24T10:27:28.040Z,94580.16
2022-08-24T10:30:03.545Z,94585.97
2022-08-24T10:33:03.983Z,94579.19
2022-08-24T10:36:09.219Z,94572.91
2022-08-24T10:39:08.532Z,94563.28
2022-08-24T10:42:33.177Z,94571.56
2022-08-24T10:45:12.911Z,94564.34
2022-08-24T10:47:53.589Z,94570.78
2022-08-24T10:50:34.296Z,94569.38
2022-08-24T10:53:22.721Z,94561.06
2022-08-24T10:56:09.618Z,94572.06
2022-08-24T10:58:47.514Z,94567.47
2022-08-24T11:01:29.382Z,94566.78
2022-08-24T11:03:58.193Z,94574.16
2022-08-24T11:06:28.841Z,94564.88
2022-08-24T11:09:04.705Z,94574.59
2022-08-24T11:11:36.339Z,94572.59
2022-08-24T11:14:16.008Z,94577.34
2022-08-24T11:16:45.793Z,94570.88
2022-08-24T11:19:27.903Z,94585.09
2022-08-24T11:22:01.958Z,94579.00
2022-08-24T11:24:40.117Z,94569.44
2022-08-24T11:27:18.705Z,94571.69
2022-08-24T11:29:51.763Z,94577.88
2022-08-24T11:32:33.784Z,94567.25
2022-08-24T11:35:04.302Z,94565.91
2022-08-24T11:37:34.776Z,94566.00
2022-08-24T11:40:02.486Z,94568.69
2022-08-24T11:42:53.045Z,94565.63
2022-08-24T11:45:31.777Z,94560.69
2022-08-24T11:48:07.014Z,94560.63
2022-08-24T11:50:46.119Z,94568.47
2022-08-24T11:53:51.470Z,94569.88
2022-08-24T11:56:25.996Z,94564.91
2022-08-24T11:59:08.009Z,94559.78
2022-08-24T12:01:53.621Z,94558.72
2022-08-24T12:04:58.460Z,94560.56
2022-08-24T12:07:37.493Z,94557.91
2022-08-24T12:10:32.744Z,94560.69
2022-08-24T12:13:27.764Z,94550.53
2022-08-24T12:16:01.159Z,94554.22
2022-08-24T12:18:39.116Z,94547.16
2022-08-24T12:21:12.589Z,94550.09
2022-08-24T12:23:48.911Z,94549.41
2022-08-24T12:26:53.265Z,94550.66
2022-08-24T12:29:35.711Z,94546.03
2022-08-24T12:32:50.479Z,94541.81
2022-08-24T12:35:32.678Z,94546.56
2022-08-24T12:38:08.381Z,94541.16
2022-08-24T12:40:43.096Z,94540.09
2022-08-24T12:43:15.157Z,94532.56
2022-08-24T12:45:41.943Z,94532.56
2022-08-24T12:48:33.361Z,94531.13
2022-08-24T12:51:18.461Z,94531.09
2022-08-24T12:54:23.690Z,94527.31
2022-08-24T12:57:19.805Z,94526.06
2022-08-24T12:59:50.205Z,94531.41
2022-08-24T13:02:16.894Z,94530.69
2022-08-24T13:04:57.476Z,94529.31
2022-08-24T13:07:24.111Z,94530.31
2022-08-24T13:09:53.964Z,94526.88
2022-08-24T13:12:39.142Z,94526.22
2022-08-24T13:15:25.513Z,94510.50
2022-08-24T13:18:09.555Z,94511.81
2022-08-24T13:20:36.702Z,94512.44
2022-08-24T13:23:13.111Z,94507.69
2022-08-24T13:25:52.046Z,94520.31
2022-08-24T13:28:24.521Z,94516.66
2022-08-24T13:30:57.309Z,94516.66
2022-08-24T13:33:50.008Z,94516.22
2022-08-24T13:36:32.522Z,94513.69
2022-08-24T13:39:35.996Z,94511.50
2022-08-24T13:43:03.149Z,94506.56
2022-08-24T13:46:11.331Z,94496.47
2022-08-24T13:49:03.555Z,94510.72
2022-08-24T13:51:37.232Z,94510.88
2022-08-24T13:54:15.195Z,94512.34
2022-08-24T13:56:50.057Z,94515.16
2022-08-24T13:59:54.590Z,94513.69
2022-08-24T14:03:03.707Z,94503.91
2022-08-24T14:05:47.263Z,94516.31
2022-08-24T14:08:32.710Z,94506.31
2022-08-24T14:11:23.877Z,94506.72
2022-08-24T14:13:56.540Z,94496.06
2022-08-24T14:17:25.499Z,94503.66
2022-08-24T14:20:09.369Z,94498.44
2022-08-24T14:22:36.014Z,94503.97
2022-08-24T14:25:22.288Z,94507.06
2022-08-24T14:28:31.850Z,94499.66
2022-08-24T14:31:17.482Z,94491.84
2022-08-24T14:33:57.756Z,94502.78
2022-08-24T14:36:55.065Z,94504.78
2022-08-24T14:39:33.550Z,94502.56
2022-08-24T14:42:12.465Z,94496.44
2022-08-24T14:44:57.546Z,94496.38
2022-08-24T14:47:49.418Z,94496.03
2022-08-24T14:50:24.105Z,94500.91
2022-08-24T14:53:03.739Z,94493.34
2022-08-24T14:55:40.078Z,94489.03
2022-08-24T14:58:15.748Z,94484.47
2022-08-24T15:01:14.777Z,94482.88
2022-08-24T15:03:53.706Z,94483.38
2022-08-24T15:06:39.392Z,94484.56
2022-08-24T15:09:35.588Z,94488.88
2022-08-24T15:12:22.151Z,94484.47
2022-08-24T15:14:55.380Z,94478.91
2022-08-24T15:17:29.042Z,94487.16
2022-08-24T15:20:14.213Z,94477.47
2022-08-24T15:23:02.515Z,94475.53
2022-08-24T15:25:37.945Z,94482.13
2022-08-24T15:28:24.113Z,94475.09
2022-08-24T15:31:01.572Z,94478.19
2022-08-24T15:33:30.444Z,94479.09
2022-08-24T15:36:06.187Z,94484.78
2022-08-24T15:38:36.177Z,94480.53
2022-08-24T15:41:28.807Z,94485.72
2022-08-24T15:44:20.625Z,94472.06
2022-08-24T15:46:57.370Z,94481.78
2022-08-24T15:49:28.915Z,94485.69
2022-08-24T15:52:00.580Z,94490.41
2022-08-24T15:54:33.859Z,94481.06
2022-08-24T15:57:18.859Z,94487.47
2022-08-24T15:59:50.537Z,94484.19
2022-08-24T16:02:33.314Z,94481.38
2022-08-24T16:05:25.516Z,94485.59
2022-08-24T16:08:07.235Z,94486.88
2022-08-24T16:10:44.992Z,94490.72
2022-08-24T16:13:17.835Z,94490.41
2022-08-24T16:15:45.918Z,94480.06
2022-08-24T16:18:12.973Z,94491.16
2022-08-24T16:20:40.449Z,94491.56
2022-08-24T16:23:11.379Z,94485.34
2022-08-24T16:25:51.063Z,94488.44
2022-08-24T16:28:21.490Z,94483.00
2022-08-24T16:30:58.421Z,94481.19
2022-08-24T16:33:43.338Z,94487.91
2022-08-24T16:36:18.089Z,94485.59
2022-08-24T16:38:50.607Z,94484.63
2022-08-24T16:41:21.333Z,94483.84
2022-08-24T16:43:49.077Z,94484.81
2022-08-24T16:46:20.734Z,94482.47
2022-08-24T16:48:47.483Z,94482.63
2022-08-24T16:51:14.424Z,94475.66
2022-08-24T16:53:41.129Z,94479.09
2022-08-24T16:56:08.941Z,94478.78
2022-08-24T16:58:37.048Z,94479.19
2022-08-24T17:01:05.305Z,94479.59
2022-08-24T17:03:32.194Z,94477.31
2022-08-24T17:05:59.115Z,94477.31
2022-08-24T17:08:27.426Z,94481.66
2022-08-24T17:10:55.409Z,94488.69
2022-08-24T17:13:46.277Z,94491.91
2022-08-24T17:16:11.683Z,94494.69
2022-08-24T17:18:38.957Z,94492.41
2022-08-24T17:21:06.189Z,94488.56
2022-08-24T17:23:33.944Z,94492.13
2022-08-24T17:26:02.260Z,94491.34
2022-08-24T17:28:29.337Z,94492.63
2022-08-24T17:30:56.214Z,94500.19
2022-08-24T17:33:22.969Z,94494.06
2022-08-24T17:35:54.418Z,94502.69
2022-08-24T17:38:21.636Z,94496.97
2022-08-24T17:40:49.927Z,94513.19
2022-08-24T17:43:16.625Z,94499.56
2022-08-24T17:45:43.555Z,94506.72
2022-08-24T17:48:17.057Z,94510.72
2022-08-24T17:50:44.920Z,94506.53
2022-08-24T17:53:11.835Z,94503.16
2022-08-24T17:55:38.709Z,94516.50
2022-08-24T17:58:05.494Z,94516.56
2022-08-24T18:00:32.288Z,94524.03
2022-08-24T18:02:59.258Z,94517.06
2022-08-24T18:05:26.125Z,94525.25
2022-08-24T18:07:55.423Z,94525.25
2022-08-24T18:10:25.644Z,94523.41
2022-08-24T18:12:53.383Z,94525.78
2022-08-24T18:15:20.468Z,94526.59
2022-08-24T18:17:50.032Z,94531.75
2022-08-24T18:20:21.658Z,94525.50
2022-08-24T18:22:50.755Z,94532.56
2022-08-24T18:25:23.314Z,94528.34
2022-08-24T18:27:53.927Z,94536.19
2022-08-24T18:30:24.655Z,94529.94
2022-08-24T18:32:55.792Z,94529.56
2022-08-24T18:35:22.842Z,94535.41
2022-08-24T18:37:50.150Z,94539.72
2022-08-24T18:40:21.574Z,94540.13
2022-08-24T18:42:50.734Z,94539.03
2022-08-24T18:45:17.778Z,94546.06
2022-08-24T18:47:44.587Z,94549.19
2022-08-24T18:50:19.923Z,94546.50
2022-08-24T18:52:46.828Z,94552.38
2022-08-24T18:55:14.005Z,94548.47
2022-08-24T18:57:40.729Z,94551.59
2022-08-24T19:00:08.656Z,94556.28
2022-08-24T19:02:36.012Z,94550.09
2022-08-24T19:05:06.783Z,94548.53
2022-08-24T19:07:36.732Z,94555.94
2022-08-24T19:10:05.680Z,94549.31
2022-08-24T19:12:36.613Z,94551.28
2022-08-24T19:15:03.707Z,94551.28
2022-08-24T19:17:31.167Z,94554.84
2022-08-24T19:19:58.086Z,94553.66
2022-08-24T19:22:26.031Z,94551.72
2022-08-24T19:24:54.061Z,94548.59
2022-08-24T19:27:21.097Z,94552.50
2022-08-24T19:29:56.251Z,94551.34
2022-08-24T19:32:26.263Z,94552.50
2022-08-24T19:34:54.424Z,94551.34
2022-08-24T19:37:21.747Z,94547.03
2022-08-24T19:39:51.002Z,94547.03
2022-08-24T19:42:18.402Z,94549.38
2022-08-24T19:45:04.435Z,94539.25
2022-08-24T19:47:34.594Z,94540.41
2022-08-24T19:50:03.275Z,94551.75
2022-08-24T19:52:32.478Z,94544.34
2022-08-24T19:54:59.496Z,94553.31
2022-08-24T19:57:41.579Z,94559.53
2022-08-24T20:00:24.775Z,94544.31
2022-08-24T20:02:54.192Z,94549.38
2022-08-24T20:05:23.324Z,94550.56
2022-08-24T20:07:50.730Z,94555.25
2022-08-24T20:10:20.626Z,94557.94
2022-08-24T20:12:47.431Z,94553.25
2022-08-24T20:15:14.373Z,94554.03
2022-08-24T20:17:41.476Z,94552.47
2022-08-24T20:20:10.615Z,94552.84
2022-08-24T20:22:38.192Z,94553.97
2022-08-24T20:25:06.109Z,94550.09
2022-08-24T20:27:33.035Z,94556.31
2022-08-24T20:30:00.250Z,94559.03
2022-08-24T20:32:29.388Z,94548.50
2022-08-24T20:34:56.100Z,94549.69
2022-08-24T20:37:25.977Z,94553.94
2022-08-24T20:39:57.172Z,94551.97
2022-08-24T20:42:26.714Z,94550.78
2022-08-24T20:44:54.791Z,94548.81
2022-08-24T20:47:22.348Z,94542.63
2022-08-24T20:49:49.620Z,94537.94
2022-08-24T20:52:16.461Z,94541.81
2022-08-24T20:54:43.725Z,94538.31
2022-08-24T20:57:17.340Z,94538.72
2022-08-24T20:59:45.212Z,94534.81
2022-08-24T21:02:12.091Z,94527.84
2022-08-24T21:04:38.830Z,94539.91
2022-08-24T21:07:08.565Z,94532.09
2022-08-24T21:09:35.320Z,94524.72
2022-08-24T21:12:02.080Z,94536.78
2022-08-24T21:14:29.009Z,94522.38
2022-08-24T21:16:59.265Z,94535.22
2022-08-24T21:19:26.101Z,94532.09
2022-08-24T21:21:52.993Z,94543.81
2022-08-24T21:24:19.861Z,94532.09
2022-08-24T21:26:46.836Z,94540.69
2022-08-24T21:29:13.688Z,94539.09
2022-08-24T21:31:40.500Z,94549.59
2022-08-24T21:34:26.630Z,94550.00
2022-08-24T21:36:54.835Z,94553.50
2022-08-24T21:39:21.636Z,94551.94
2022-08-24T21:41:48.393Z,94561.31
2022-08-24T21:44:15.184Z,94562.47
2022-08-24T21:46:42.006Z,94556.22
2022-08-24T21:49:12.038Z,94561.31
2022-08-24T21:51:40.436Z,94557.75
2022-08-24T21:54:07.374Z,94558.13
2022-08-24T21:56:34.549Z,94548.31
2022-08-24T21:59:01.818Z,94547.44
2022-08-24T22:01:29.050Z,94547.44
2022-08-24T22:03:58.454Z,94543.84
2022-08-24T22:06:31.098Z,94539.59
2022-08-24T22:08:59.056Z,94532.59
2022-08-24T22:11:25.883Z,94532.94
2022-08-24T22:13:53.772Z,94539.56
2022-08-24T22:16:21.956Z,94540.34
2022-08-24T22:18:49.574Z,94532.59
2022-08-24T22:21:20.433Z,94525.56
2022-08-24T22:23:47.159Z,94520.13
2022-08-24T22:26:13.940Z,94515.06
2022-08-24T22:28:42.599Z,94524.38
2022-08-24T22:31:19.674Z,94524.34
2022-08-24T22:33:46.740Z,94520.13
2022-08-24T22:36:15.668Z,94514.69
2022-08-24T22:38:43.360Z,94513.13
2022-08-24T22:41:10.479Z,94517.00
2022-08-24T22:43:56.735Z,94515.38
2022-08-24T22:46:25.198Z,94519.19
2022-08-24T22:48:52.684Z,94525.31
2022-08-24T22:51:20.259Z,94520.63
2022-08-24T22:53:49.122Z,94518.66
2022-08-24T22:56:20.324Z,94520.19
2022-08-24T22:58:48.051Z,94516.25
2022-08-24T23:01:24.916Z,94516.25
2022-08-24T23:03:53.538Z,94510.75
2022-08-24T23:06:21.633Z,94511.09
2022-08-24T23:08:48.851Z,94519.69
2022-08-24T23:11:16.070Z,94516.53
2022-08-24T23:13:43.149Z,94511.09
2022-08-24T23:16:12.683Z,94519.63
2022-08-24T23:19:15.342Z,94515.69
2022-08-24T23:21:42.458Z,94512.13
2022-08-24T23:24:11.046Z,94512.13
2022-08-24T23:26:38.889Z,94513.22
2022-08-24T23:29:07.136Z,94502.72
2022-08-24T23:31:33.984Z,94501.56
2022-08-24T23:34:01.097Z,94507.81
2022-08-24T23:36:28.238Z,94500.09
2022-08-24T23:38:57.037Z,94503.28
2022-08-24T23:41:26.699Z,94496.38
2022-08-24T23:43:54.976Z,94492.91
2022-08-24T23:46:22.810Z,94492.19
2022-08-24T23:48:55.384Z,94486.75
2022-08-24T23:51:23.425Z,94484.81
2022-08-24T23:53:51.115Z,94489.84
2022-08-24T23:56:32.651Z,94481.66
2022-08-24T23:59:06.524Z,94487.09
